createdAt,value
2018-09-29T00:02:00.019Z,6.10
2018-09-29T00:04:28.249Z,6.00
2018-09-29T00:06:56.532Z,6.00
2018-09-29T00:09:24.700Z,5.90
2018-09-29T00:11:52.961Z,6.00
2018-09-29T00:14:21.141Z,6.00
2018-09-29T00:16:49.360Z,6.00
2018-09-29T00:19:17.557Z,5.90
2018-09-29T00:21:45.734Z,5.90
2018-09-29T00:26:41.944Z,5.90
2018-09-29T00:29:10.116Z,5.80
2018-09-29T00:31:38.290Z,5.80
2018-09-29T00:34:06.492Z,5.80
2018-09-29T00:36:34.666Z,5.80
2018-09-29T00:39:02.891Z,5.80
2018-09-29T00:41:31.134Z,5.60
2018-09-29T00:43:59.326Z,5.60
2018-09-29T00:46:27.566Z,5.60
2018-09-29T00:48:55.817Z,5.60
2018-09-29T00:51:24.011Z,5.50
2018-09-29T00:53:52.212Z,5.40
2018-09-29T00:56:20.423Z,5.50
2018-09-29T00:58:48.696Z,5.60
2018-09-29T01:01:16.882Z,5.40
2018-09-29T01:03:45.068Z,5.50
2018-09-29T01:06:13.261Z,5.30
2018-09-29T01:08:41.458Z,5.30
2018-09-29T01:11:09.670Z,5.30
2018-09-29T01:13:37.882Z,5.30
2018-09-29T01:16:06.114Z,5.30
2018-09-29T01:18:34.342Z,5.30
2018-09-29T01:21:05.620Z,5.20
2018-09-29T01:23:33.827Z,5.10
2018-09-29T01:26:02.022Z,5.10
2018-09-29T01:28:30.298Z,5.00
2018-09-29T01:30:58.516Z,5.00
2018-09-29T01:33:26.701Z,5.00
2018-09-29T01:35:55.093Z,4.90
2018-09-29T01:38:23.309Z,5.00
2018-09-29T01:40:51.699Z,5.00
2018-09-29T01:43:19.904Z,4.90
2018-09-29T01:45:48.106Z,5.00
2018-09-29T01:48:16.286Z,5.10
2018-09-29T01:50:44.469Z,5.00
2018-09-29T01:53:12.675Z,5.00
2018-09-29T01:55:40.894Z,5.00
2018-09-29T01:58:09.102Z,5.00
2018-09-29T02:00:37.294Z,5.00
2018-09-29T02:03:11.673Z,5.00
2018-09-29T02:05:41.260Z,4.90
2018-09-29T02:08:09.458Z,4.90
2018-09-29T02:10:37.667Z,4.80
2018-09-29T02:13:05.860Z,4.80
2018-09-29T02:15:34.685Z,4.70
2018-09-29T02:18:02.891Z,4.80
2018-09-29T02:20:31.105Z,4.60
2018-09-29T02:22:59.304Z,4.60
2018-09-29T02:25:27.502Z,4.60
2018-09-29T02:27:55.725Z,4.70
2018-09-29T02:30:23.979Z,4.60
2018-09-29T02:32:52.310Z,4.70
2018-09-29T02:35:20.619Z,4.70
2018-09-29T02:37:48.871Z,4.70
2018-09-29T02:40:17.126Z,4.70
2018-09-29T02:42:45.359Z,4.60
2018-09-29T02:45:13.574Z,4.60
2018-09-29T02:47:41.789Z,4.50
2018-09-29T02:50:10.042Z,4.50
2018-09-29T02:52:38.329Z,4.60
2018-09-29T02:55:06.598Z,4.60
2018-09-29T02:57:34.816Z,4.50
2018-09-29T03:00:03.046Z,4.50
2018-09-29T03:02:31.268Z,4.40
2018-09-29T03:04:59.457Z,4.40
2018-09-29T03:07:27.656Z,4.40
2018-09-29T03:09:55.906Z,4.40
2018-09-29T03:12:24.119Z,4.40
2018-09-29T03:14:52.324Z,4.30
2018-09-29T03:17:20.532Z,4.20
2018-09-29T03:19:48.742Z,4.20
2018-09-29T03:22:17.020Z,4.30
2018-09-29T03:24:45.214Z,4.20
2018-09-29T03:27:13.386Z,4.30
2018-09-29T03:29:41.593Z,4.10
2018-09-29T03:32:09.826Z,4.10
2018-09-29T03:34:38.018Z,4.10
2018-09-29T03:37:06.359Z,4.10
2018-09-29T03:39:34.566Z,4.20
2018-09-29T03:42:02.762Z,4.10
2018-09-29T03:44:31.003Z,4.10
2018-09-29T03:46:59.280Z,4.00
2018-09-29T03:49:27.506Z,3.90
2018-09-29T03:51:55.701Z,3.80
2018-09-29T03:54:23.949Z,3.80
2018-09-29T03:56:52.156Z,3.80
2018-09-29T03:59:20.439Z,3.70
2018-09-29T04:01:48.656Z,3.70
2018-09-29T04:04:16.866Z,3.70
2018-09-29T04:06:45.123Z,3.70
2018-09-29T04:09:13.336Z,3.70
2018-09-29T04:11:41.585Z,3.70
2018-09-29T04:14:09.860Z,3.70
2018-09-29T04:16:38.112Z,3.70
2018-09-29T04:19:06.489Z,3.70
2018-09-29T04:21:44.013Z,3.60
2018-09-29T04:24:12.336Z,3.60
2018-09-29T04:26:40.517Z,3.70
2018-09-29T04:29:08.711Z,3.80
2018-09-29T04:31:36.993Z,3.80
2018-09-29T04:34:05.245Z,3.80
2018-09-29T04:36:33.423Z,3.80
2018-09-29T04:39:01.637Z,3.70
2018-09-29T04:41:29.845Z,3.70
2018-09-29T04:43:58.050Z,3.70
2018-09-29T04:46:26.247Z,3.70
2018-09-29T04:48:54.429Z,3.60
2018-09-29T04:51:22.593Z,3.60
2018-09-29T04:53:50.781Z,3.70
2018-09-29T04:56:18.963Z,3.70
2018-09-29T04:58:47.234Z,3.60
2018-09-29T05:01:15.425Z,3.60
2018-09-29T05:03:43.619Z,3.60
2018-09-29T05:06:11.826Z,3.50
2018-09-29T05:08:40.038Z,3.50
2018-09-29T05:11:08.218Z,3.50
2018-09-29T05:13:36.396Z,3.60
2018-09-29T05:16:04.811Z,3.60
2018-09-29T05:18:33.004Z,3.60
2018-09-29T05:21:01.225Z,3.50
2018-09-29T05:23:29.418Z,3.50
2018-09-29T05:25:57.642Z,3.50
2018-09-29T05:28:25.856Z,3.50
2018-09-29T05:30:54.083Z,3.50
2018-09-29T05:33:22.305Z,3.40
2018-09-29T05:35:50.539Z,3.40
2018-09-29T05:38:18.785Z,3.40
2018-09-29T05:40:47.019Z,3.40
2018-09-29T05:43:15.204Z,3.40
2018-09-29T05:45:43.414Z,3.50
2018-09-29T05:48:11.675Z,3.60
2018-09-29T05:50:39.836Z,3.70
2018-09-29T05:53:08.029Z,3.70
2018-09-29T05:55:36.217Z,3.80
2018-09-29T05:58:04.531Z,3.80
2018-09-29T06:00:32.916Z,3.80
2018-09-29T06:03:01.029Z,3.80
2018-09-29T06:05:29.396Z,3.80
2018-09-29T06:07:57.477Z,3.90
2018-09-29T06:10:25.713Z,4.00
2018-09-29T06:12:53.919Z,4.10
2018-09-29T06:15:22.149Z,4.20
2018-09-29T06:17:50.366Z,4.20
2018-09-29T06:20:18.569Z,4.20
2018-09-29T06:22:46.806Z,4.30
2018-09-29T06:25:15.053Z,4.40
2018-09-29T06:27:43.229Z,4.50
2018-09-29T06:30:11.417Z,4.60
2018-09-29T06:32:39.600Z,4.70
2018-09-29T06:35:07.858Z,4.70
2018-09-29T06:37:36.069Z,4.90
2018-09-29T06:40:04.298Z,5.00
2018-09-29T06:42:32.476Z,5.20
2018-09-29T06:45:00.781Z,5.30
2018-09-29T06:47:28.978Z,5.60
2018-09-29T06:49:57.195Z,5.80
2018-09-29T06:52:25.429Z,6.00
2018-09-29T06:54:53.604Z,6.10
2018-09-29T06:57:21.805Z,6.50
2018-09-29T06:59:50.017Z,6.70
2018-09-29T07:02:18.193Z,6.90
2018-09-29T07:04:46.384Z,7.10
2018-09-29T07:07:14.572Z,7.40
2018-09-29T07:09:42.736Z,7.70
2018-09-29T07:12:10.951Z,8.00
2018-09-29T07:14:39.161Z,8.50
2018-09-29T07:17:07.429Z,8.60
2018-09-29T07:19:36.241Z,8.90
2018-09-29T07:22:04.454Z,9.20
2018-09-29T07:24:32.661Z,9.30
2018-09-29T07:27:00.837Z,9.50
2018-09-29T07:29:29.008Z,9.80
2018-09-29T07:31:57.194Z,10.00
2018-09-29T07:34:25.658Z,10.60
2018-09-29T07:36:53.989Z,11.20
2018-09-29T07:39:22.190Z,11.20
2018-09-29T07:41:50.380Z,11.60
2018-09-29T07:44:18.560Z,11.70
2018-09-29T07:46:46.913Z,12.10
2018-09-29T07:49:15.210Z,12.20
2018-09-29T07:51:43.406Z,12.30
2018-09-29T07:54:11.624Z,13.10
2018-09-29T07:56:39.797Z,13.80
2018-09-29T07:59:09.160Z,15.40
2018-09-29T08:01:37.365Z,17.40
2018-09-29T08:04:05.553Z,20.10
2018-09-29T08:06:33.758Z,23.00
2018-09-29T08:11:29.859Z,26.20
2018-09-29T08:13:58.017Z,26.50
2018-09-29T08:16:26.200Z,26.80
2018-09-29T08:18:54.376Z,28.50
2018-09-29T08:21:22.553Z,25.80
2018-09-29T08:23:50.788Z,24.80
2018-09-29T08:26:19.069Z,25.90
2018-09-29T08:28:47.235Z,26.80
2018-09-29T08:31:15.432Z,25.30
2018-09-29T08:33:43.621Z,24.50
2018-09-29T08:36:11.797Z,23.50
2018-09-29T08:38:39.989Z,22.00
2018-09-29T08:41:08.220Z,20.70
2018-09-29T08:43:36.442Z,20.10
2018-09-29T08:46:04.614Z,19.30
2018-09-29T08:48:32.797Z,18.00
2018-09-29T08:51:00.980Z,17.60
2018-09-29T08:53:29.185Z,17.40
2018-09-29T08:55:57.335Z,19.40
2018-09-29T09:00:53.412Z,25.70
2018-09-29T09:03:21.640Z,28.10
2018-09-29T09:05:49.852Z,28.10
2018-09-29T09:08:18.026Z,30.50
2018-09-29T09:10:46.292Z,30.60
2018-09-29T09:13:14.541Z,30.90
2018-09-29T09:15:42.775Z,32.80
2018-09-29T09:18:10.960Z,33.70
2018-09-29T09:20:39.137Z,34.90
2018-09-29T09:23:07.350Z,34.80
2018-09-29T09:25:35.472Z,35.50
2018-09-29T09:28:03.633Z,36.10
2018-09-29T09:30:31.824Z,34.50
2018-09-29T09:33:00.002Z,32.80
2018-09-29T09:37:56.111Z,31.90
2018-09-29T09:40:24.299Z,31.70
2018-09-29T09:42:52.469Z,32.60
2018-09-29T09:45:20.633Z,33.50
2018-09-29T09:47:48.836Z,33.30
2018-09-29T09:50:17.005Z,33.50
2018-09-29T09:52:45.206Z,35.50
2018-09-29T09:55:13.552Z,34.00
2018-09-29T09:57:41.746Z,32.30
2018-09-29T10:00:09.970Z,33.00
2018-09-29T10:02:42.360Z,33.80
2018-09-29T10:05:10.545Z,33.90
2018-09-29T10:07:38.729Z,32.60
2018-09-29T10:10:06.936Z,32.10
2018-09-29T10:12:35.105Z,32.00
2018-09-29T10:15:03.345Z,31.20
2018-09-29T10:17:31.666Z,31.60
2018-09-29T10:19:59.785Z,30.70
2018-09-29T10:22:27.986Z,31.70
2018-09-29T10:24:56.165Z,31.50
2018-09-29T10:27:24.424Z,33.20
2018-09-29T10:29:52.593Z,32.90
2018-09-29T10:32:20.902Z,31.00
2018-09-29T10:34:49.069Z,29.30
2018-09-29T10:37:17.309Z,29.40
2018-09-29T10:39:45.508Z,29.90
2018-09-29T10:42:13.712Z,28.90
2018-09-29T10:44:41.932Z,29.50
2018-09-29T10:47:10.099Z,29.30
2018-09-29T10:49:38.281Z,29.30
2018-09-29T10:52:06.450Z,28.50
2018-09-29T10:54:34.680Z,27.20
2018-09-29T10:57:02.885Z,26.00
2018-09-29T10:59:31.058Z,25.10
2018-09-29T11:01:59.260Z,25.30
2018-09-29T11:04:27.441Z,24.50
2018-09-29T11:06:55.613Z,23.40
2018-09-29T11:09:23.828Z,23.00
2018-09-29T11:11:52.030Z,22.40
2018-09-29T11:14:20.251Z,21.70
2018-09-29T11:16:48.446Z,22.10
2018-09-29T11:19:16.637Z,22.30
2018-09-29T11:21:51.308Z,22.80
2018-09-29T11:24:19.473Z,22.80
2018-09-29T11:26:47.685Z,22.90
2018-09-29T11:29:15.871Z,22.60
2018-09-29T11:31:44.060Z,22.70
2018-09-29T11:34:12.244Z,22.00
2018-09-29T11:36:40.396Z,22.40
2018-09-29T11:39:10.115Z,22.20
2018-09-29T11:41:38.444Z,22.40
2018-09-29T11:44:06.666Z,22.20
2018-09-29T11:46:34.853Z,22.10
2018-09-29T11:49:03.088Z,22.20
2018-09-29T11:51:31.303Z,21.50
2018-09-29T11:53:59.883Z,20.90
2018-09-29T11:56:28.067Z,20.60
2018-09-29T11:58:56.273Z,21.10
2018-09-29T12:01:24.830Z,21.30
2018-09-29T12:03:52.998Z,21.70
2018-09-29T12:06:21.276Z,21.70
2018-09-29T12:08:49.605Z,21.50
2018-09-29T12:11:18.021Z,21.40
2018-09-29T12:13:46.262Z,21.60
2018-09-29T12:16:14.420Z,21.10
2018-09-29T12:18:42.604Z,21.30
2018-09-29T12:21:10.857Z,21.60
2018-09-29T12:23:38.988Z,21.30
2018-09-29T12:26:07.648Z,21.50
2018-09-29T12:28:36.388Z,20.90
2018-09-29T12:31:04.550Z,21.30
2018-09-29T12:33:32.752Z,21.20
2018-09-29T12:36:00.964Z,21.40
2018-09-29T12:38:29.184Z,20.60
2018-09-29T12:40:57.381Z,20.80
2018-09-29T12:46:00.808Z,20.60
2018-09-29T12:48:29.063Z,20.80
2018-09-29T12:50:57.266Z,21.20
2018-09-29T12:53:25.520Z,20.90
2018-09-29T12:55:53.738Z,20.70
2018-09-29T12:58:21.970Z,20.40
2018-09-29T13:00:50.204Z,20.60
2018-09-29T13:03:18.396Z,20.60
2018-09-29T13:05:46.622Z,20.60
2018-09-29T13:08:14.923Z,20.80
2018-09-29T13:10:43.132Z,20.80
2018-09-29T13:13:11.374Z,21.00
2018-09-29T13:15:39.617Z,21.00
2018-09-29T13:18:07.838Z,21.00
2018-09-29T13:20:36.047Z,20.90
2018-09-29T13:23:04.364Z,20.80
2018-09-29T13:25:32.573Z,20.80
2018-09-29T13:28:00.772Z,20.70
2018-09-29T13:30:29.025Z,21.00
2018-09-29T13:32:57.223Z,21.20
2018-09-29T13:35:25.460Z,21.00
2018-09-29T13:37:53.656Z,20.90
2018-09-29T13:40:21.868Z,20.80
2018-09-29T13:42:50.145Z,20.60
2018-09-29T13:45:18.385Z,20.50
2018-09-29T13:47:46.660Z,20.70
2018-09-29T13:50:14.917Z,20.60
2018-09-29T13:52:43.127Z,20.80
2018-09-29T13:55:11.341Z,21.00
2018-09-29T13:57:39.557Z,20.80
2018-09-29T14:00:07.768Z,20.80
2018-09-29T14:02:36.054Z,20.90
2018-09-29T14:05:04.333Z,20.80
2018-09-29T14:07:32.633Z,20.90
2018-09-29T14:10:00.829Z,20.60
2018-09-29T14:12:29.109Z,20.50
2018-09-29T14:14:57.313Z,20.20
2018-09-29T14:17:25.551Z,20.00
2018-09-29T14:19:53.807Z,19.90
2018-09-29T14:22:22.021Z,19.90
2018-09-29T14:24:50.208Z,20.10
2018-09-29T14:27:18.478Z,20.30
2018-09-29T14:29:46.692Z,20.30
2018-09-29T14:32:14.918Z,20.40
2018-09-29T14:34:43.152Z,20.30
2018-09-29T14:37:11.363Z,20.30
2018-09-29T14:39:39.627Z,20.40
2018-09-29T14:42:07.823Z,20.20
2018-09-29T14:44:36.231Z,19.80
2018-09-29T14:47:04.425Z,19.90
2018-09-29T14:49:32.707Z,19.70
2018-09-29T14:52:00.884Z,19.60
2018-09-29T14:54:29.081Z,19.60
2018-09-29T14:56:57.414Z,19.50
2018-09-29T14:59:25.616Z,19.60
2018-09-29T15:01:53.780Z,19.60
2018-09-29T15:04:22.002Z,19.30
2018-09-29T15:06:50.115Z,19.40
2018-09-29T15:09:18.301Z,19.10
2018-09-29T15:11:46.468Z,19.10
2018-09-29T15:14:14.657Z,19.20
2018-09-29T15:16:42.825Z,19.20
2018-09-29T15:19:11.001Z,19.20
2018-09-29T15:21:39.329Z,19.20
2018-09-29T15:24:07.531Z,19.10
2018-09-29T15:26:35.734Z,19.00
2018-09-29T15:29:03.945Z,19.00
2018-09-29T15:31:32.177Z,19.00
2018-09-29T15:34:00.401Z,19.00
2018-09-29T15:36:28.625Z,19.00
2018-09-29T15:41:34.920Z,18.90
2018-09-29T15:44:03.126Z,18.60
2018-09-29T15:46:31.313Z,18.50
2018-09-29T15:48:59.565Z,18.40
2018-09-29T15:51:27.786Z,18.50
2018-09-29T15:53:56.026Z,18.50
2018-09-29T15:56:24.279Z,18.50
2018-09-29T15:58:52.510Z,18.40
2018-09-29T16:01:20.727Z,18.30
2018-09-29T16:03:48.999Z,18.20
2018-09-29T16:06:17.196Z,18.10
2018-09-29T16:08:45.416Z,17.90
2018-09-29T16:11:13.590Z,17.80
2018-09-29T16:13:41.829Z,17.70
2018-09-29T16:16:10.016Z,17.50
2018-09-29T16:18:38.369Z,17.30
2018-09-29T16:21:06.604Z,17.10
2018-09-29T16:23:34.945Z,16.90
2018-09-29T16:26:03.305Z,16.70
2018-09-29T16:28:31.525Z,16.50
2018-09-29T16:31:01.234Z,16.40
2018-09-29T16:33:29.428Z,16.30
2018-09-29T16:35:57.781Z,16.10
2018-09-29T16:38:26.053Z,16.10
2018-09-29T16:40:54.209Z,15.90
2018-09-29T16:43:22.447Z,15.70
2018-09-29T16:45:50.790Z,15.50
2018-09-29T16:48:19.320Z,15.40
2018-09-29T16:50:47.636Z,15.30
2018-09-29T16:53:15.849Z,14.90
2018-09-29T16:55:44.467Z,14.70
2018-09-29T16:58:12.697Z,14.60
2018-09-29T17:00:40.957Z,14.20
2018-09-29T17:03:09.192Z,13.90
2018-09-29T17:05:37.425Z,13.80
2018-09-29T17:08:05.681Z,13.70
2018-09-29T17:10:33.898Z,13.70
2018-09-29T17:13:02.147Z,13.40
2018-09-29T17:15:30.361Z,13.30
2018-09-29T17:17:58.551Z,13.20
2018-09-29T17:20:26.803Z,13.30
2018-09-29T17:22:55.032Z,13.20
2018-09-29T17:25:23.229Z,13.10
2018-09-29T17:27:51.462Z,13.00
2018-09-29T17:30:19.762Z,12.70
2018-09-29T17:32:47.980Z,12.50
2018-09-29T17:35:16.225Z,12.30
2018-09-29T17:37:44.462Z,12.10
2018-09-29T17:40:12.684Z,12.00
2018-09-29T17:42:40.908Z,11.90
2018-09-29T17:45:09.193Z,11.80
2018-09-29T17:47:37.405Z,11.70
2018-09-29T17:50:06.469Z,11.50
2018-09-29T17:52:34.809Z,11.30
2018-09-29T17:55:03.041Z,11.20
2018-09-29T17:57:31.366Z,11.20
2018-09-29T17:59:59.605Z,11.10
2018-09-29T18:02:27.868Z,11.00
2018-09-29T18:04:56.143Z,11.10
2018-09-29T18:07:24.330Z,11.10
2018-09-29T18:09:52.641Z,11.00
2018-09-29T18:12:20.945Z,11.00
2018-09-29T18:14:49.194Z,11.00
2018-09-29T18:17:17.419Z,11.00
2018-09-29T18:19:45.654Z,11.00
2018-09-29T18:22:13.896Z,11.00
2018-09-29T18:24:42.120Z,10.80
2018-09-29T18:27:10.722Z,10.70
2018-09-29T18:29:38.963Z,10.80
2018-09-29T18:32:07.240Z,10.80
2018-09-29T18:34:35.467Z,10.80
2018-09-29T18:37:03.689Z,10.70
2018-09-29T18:39:31.963Z,10.60
2018-09-29T18:42:00.209Z,10.50
2018-09-29T18:44:28.464Z,10.30
2018-09-29T18:46:56.733Z,10.10
2018-09-29T18:49:25.001Z,10.10
2018-09-29T18:51:53.333Z,9.90
2018-09-29T18:54:21.551Z,9.90
2018-09-29T18:56:49.765Z,9.80
2018-09-29T18:59:18.013Z,9.70
2018-09-29T19:01:46.338Z,9.70
2018-09-29T19:04:14.616Z,9.60
2018-09-29T19:06:42.860Z,9.50
2018-09-29T19:09:12.622Z,9.30
2018-09-29T19:11:41.530Z,9.20
2018-09-29T19:14:09.819Z,9.10
2018-09-29T19:16:38.108Z,9.30
2018-09-29T19:19:06.678Z,9.20
2018-09-29T19:21:34.898Z,9.00
2018-09-29T19:24:03.841Z,9.00
2018-09-29T19:26:32.045Z,9.00
2018-09-29T19:29:00.298Z,9.00
2018-09-29T19:31:28.565Z,9.00
2018-09-29T19:33:56.820Z,9.00
2018-09-29T19:36:25.032Z,8.90
2018-09-29T19:38:53.295Z,8.70
2018-09-29T19:41:21.492Z,8.60
2018-09-29T19:43:49.755Z,8.60
2018-09-29T19:46:17.977Z,8.50
2018-09-29T19:48:46.221Z,8.50
2018-09-29T19:51:14.498Z,8.50
2018-09-29T19:53:42.677Z,8.50
2018-09-29T19:56:10.945Z,8.50
2018-09-29T19:58:39.320Z,8.50
2018-09-29T20:01:07.568Z,8.40
2018-09-29T20:03:35.905Z,8.40
2018-09-29T20:06:04.074Z,8.30
2018-09-29T20:08:32.302Z,8.30
2018-09-29T20:11:01.289Z,8.30
2018-09-29T20:13:29.564Z,8.20
2018-09-29T20:15:57.808Z,8.10
2018-09-29T20:18:26.033Z,8.10
2018-09-29T20:20:54.327Z,8.10
2018-09-29T20:23:22.582Z,8.00
2018-09-29T20:25:51.094Z,8.00
2018-09-29T20:28:19.424Z,8.00
2018-09-29T20:30:47.706Z,8.00
2018-09-29T20:33:15.934Z,8.00
2018-09-29T20:35:44.171Z,7.90
2018-09-29T20:38:12.445Z,7.90
2018-09-29T20:40:40.658Z,7.90
2018-09-29T20:43:08.894Z,7.90
2018-09-29T20:45:37.131Z,7.80
2018-09-29T20:48:05.519Z,7.80
2018-09-29T20:50:33.760Z,7.80
2018-09-29T20:53:02.010Z,7.90
2018-09-29T20:55:30.229Z,8.00
2018-09-29T20:57:58.478Z,7.80
2018-09-29T21:00:26.721Z,7.70
2018-09-29T21:02:54.937Z,7.60
2018-09-29T21:05:23.238Z,7.60
2018-09-29T21:07:51.438Z,7.50
2018-09-29T21:10:20.340Z,7.50
2018-09-29T21:12:48.610Z,7.50
2018-09-29T21:15:16.828Z,7.50
2018-09-29T21:17:45.328Z,7.50
2018-09-29T21:20:13.695Z,7.60
2018-09-29T21:22:42.515Z,7.50
2018-09-29T21:25:10.766Z,7.60
2018-09-29T21:27:39.201Z,7.50
2018-09-29T21:30:07.484Z,7.50
2018-09-29T21:32:35.734Z,7.50
2018-09-29T21:35:04.003Z,7.30
2018-09-29T21:37:32.258Z,7.20
2018-09-29T21:40:00.674Z,7.20
2018-09-29T21:42:28.975Z,7.10
2018-09-29T21:44:57.134Z,7.10
2018-09-29T21:47:25.370Z,7.10
2018-09-29T21:49:53.582Z,7.10
2018-09-29T21:52:21.879Z,7.20
2018-09-29T21:54:50.055Z,7.00
2018-09-29T21:57:18.292Z,7.00
2018-09-29T21:59:46.537Z,7.00
2018-09-29T22:02:14.733Z,6.90
2018-09-29T22:04:42.957Z,6.80
2018-09-29T22:07:11.154Z,6.90
2018-09-29T22:09:39.421Z,6.80
2018-09-29T22:12:07.772Z,6.80
2018-09-29T22:14:36.005Z,6.80
2018-09-29T22:17:04.238Z,6.80
2018-09-29T22:19:32.524Z,6.70
2018-09-29T22:22:00.823Z,6.80
2018-09-29T22:24:29.061Z,6.70
2018-09-29T22:26:57.283Z,6.60
2018-09-29T22:29:25.506Z,6.60
2018-09-29T22:31:53.751Z,6.60
2018-09-29T22:34:21.967Z,6.70
2018-09-29T22:36:50.215Z,6.70
2018-09-29T22:39:18.430Z,6.50
2018-09-29T22:41:46.678Z,6.50
2018-09-29T22:44:14.925Z,6.50
2018-09-29T22:46:43.131Z,6.40
2018-09-29T22:49:11.366Z,6.40
2018-09-29T22:51:39.673Z,6.30
2018-09-29T22:54:07.940Z,6.30
2018-09-29T22:56:36.223Z,6.20
2018-09-29T22:59:04.475Z,6.30
2018-09-29T23:01:32.694Z,6.30
2018-09-29T23:04:00.933Z,6.20
2018-09-29T23:06:29.210Z,6.20
2018-09-29T23:08:57.442Z,6.20
2018-09-29T23:11:25.646Z,6.20
2018-09-29T23:13:53.997Z,6.10
2018-09-29T23:16:22.213Z,6.10
2018-09-29T23:18:50.441Z,6.10
2018-09-29T23:21:18.727Z,6.10
2018-09-29T23:23:47.160Z,6.00
2018-09-29T23:26:15.500Z,6.00
2018-09-29T23:28:43.853Z,6.00
2018-09-29T23:31:12.105Z,6.00
2018-09-29T23:33:40.424Z,6.00
2018-09-29T23:36:08.683Z,5.90
2018-09-29T23:38:36.901Z,5.80
2018-09-29T23:41:05.102Z,5.80
2018-09-29T23:43:33.371Z,5.80
2018-09-29T23:46:01.616Z,6.00
2018-09-29T23:48:29.864Z,6.00
2018-09-29T23:50:58.127Z,5.90
2018-09-29T23:53:26.350Z,5.80
2018-09-29T23:55:54.649Z,5.80
2018-09-29T23:58:22.918Z,5.70
